Time;durP1;ratioP1;P1;durP2;ratioP2;P2;SDS_P1;SDS_P2;PMS_P1;PMS_P2;Temp;Humidity;BMP_temperature;BMP_pressure;BME280_temperature;BME280_humidity;BME280_pressure;Samples;Min_cycle;Max_cycle;Signal;HPM_P1;HPM_P2
2022/01/08 00:02:25;;;;;;;13.25;9.07;;;;;;;0.66;91.34;100991.56;5013233;28;20117;-66
2022/01/08 00:04:50;;;;;;;16.65;8.75;;;;;;;0.64;91.60;100998.59;5013115;28;20034;-66
2022/01/08 00:07:15;;;;;;;20.20;9.38;;;;;;;0.64;91.56;100987.31;5025871;28;20061;-66
2022/01/08 00:09:40;;;;;;;18.42;9.32;;;;;;;0.61;91.36;100987.41;5032747;28;20041;-66
2022/01/08 00:12:06;;;;;;;18.13;10.05;;;;;;;0.58;91.84;100988.34;5032789;28;20029;-66
2022/01/08 00:14:31;;;;;;;14.10;9.15;;;;;;;0.58;91.76;100998.81;5025608;28;20029;-66
2022/01/08 00:16:58;;;;;;;14.85;9.63;;;;;;;0.55;91.10;100997.16;5028208;28;20479;-66
2022/01/08 00:19:23;;;;;;;14.20;9.05;;;;;;;0.53;91.19;101005.94;5029003;28;20022;-65
2022/01/08 00:21:49;;;;;;;15.70;9.30;;;;;;;0.49;91.12;100999.13;5024155;28;20061;-65
2022/01/08 00:24:15;;;;;;;17.30;9.70;;;;;;;0.46;91.63;101010.50;5026563;28;20095;-66
2022/01/08 00:26:40;;;;;;;19.83;9.40;;;;;;;0.43;91.36;101002.75;5027111;28;20033;-66
2022/01/08 00:29:06;;;;;;;15.95;9.52;;;;;;;0.41;91.24;101008.97;5024465;28;20100;-66
2022/01/08 00:31:31;;;;;;;17.77;10.18;;;;;;;0.38;91.27;101004.66;5032306;28;20035;-66
2022/01/08 00:33:56;;;;;;;15.02;9.77;;;;;;;0.36;91.25;101009.09;5023536;28;20475;-66
2022/01/08 00:36:22;;;;;;;18.63;9.65;;;;;;;0.31;91.55;101005.78;5030599;28;20569;-66
2022/01/08 00:38:47;;;;;;;17.73;10.10;;;;;;;0.30;92.21;101006.66;5032105;28;20030;-66
2022/01/08 00:41:12;;;;;;;13.32;9.20;;;;;;;0.27;91.72;101001.56;5027203;28;20029;-65
2022/01/08 00:43:38;;;;;;;16.10;10.32;;;;;;;0.20;91.53;101018.31;5031008;28;20029;-67
2022/01/08 00:46:04;;;;;;;14.95;9.85;;;;;;;0.16;91.92;101020.16;5020028;28;20598;-66
2022/01/08 00:48:29;;;;;;;15.50;10.23;;;;;;;0.13;92.26;101028.09;5030793;28;20033;-67
2022/01/08 00:50:54;;;;;;;16.42;10.00;;;;;;;0.10;91.81;101033.41;5030924;28;20073;-67
2022/01/08 00:53:20;;;;;;;15.57;10.02;;;;;;;0.08;91.92;101035.22;5023965;28;20113;-66
2022/01/08 00:55:45;;;;;;;15.18;10.30;;;;;;;0.07;92.26;101033.50;5029699;28;20017;-66
2022/01/08 00:58:11;;;;;;;16.88;10.65;;;;;;;0.05;92.67;101032.69;5025003;28;20062;-65
2022/01/08 01:00:36;;;;;;;15.35;10.10;;;;;;;0.06;92.66;101034.41;5027659;28;20032;-65
2022/01/08 01:03:02;;;;;;;16.80;9.82;;;;;;;0.04;92.92;101029.22;5030173;28;20029;-66
2022/01/08 01:05:27;;;;;;;16.27;10.93;;;;;;;0.04;92.89;101034.44;5031718;28;20471;-66
2022/01/08 01:07:54;;;;;;;17.88;10.30;;;;;;;0.03;92.58;101032.72;5026278;28;20725;-66
2022/01/08 01:10:19;;;;;;;18.63;11.10;;;;;;;0.02;93.10;101027.53;5024593;28;20065;-66
2022/01/08 01:12:44;;;;;;;19.08;11.55;;;;;;;0.02;92.74;101024.94;5031740;28;20432;-66
2022/01/08 01:15:12;;;;;;;18.35;10.82;;;;;;;-0.01;92.57;101026.75;5024124;28;20159;-66
2022/01/08 01:17:38;;;;;;;13.85;10.88;;;;;;;-0.02;92.44;101018.94;5029711;28;20040;-65
2022/01/08 01:20:05;;;;;;;18.38;10.90;;;;;;;-0.02;92.48;101021.56;5031397;28;20025;-66
2022/01/08 01:22:40;;;;;;;18.23;11.65;;;;;;;-0.01;92.74;101025.91;5018644;28;20065;-65
2022/01/08 01:25:08;;;;;;;14.77;11.25;;;;;;;-0.02;92.92;101019.84;5031483;28;20116;-66
2022/01/08 01:30:15;;;;;;;15.27;11.00;;;;;;;-0.03;92.43;101031.16;5018270;28;20033;-67
2022/01/08 01:41:18;;;;;;;22.20;13.13;;;;;;;-0.11;92.55;101033.16;5026314;28;20098;-67
2022/01/08 01:49:06;;;;;;;20.40;13.98;;;;;;;-0.20;93.02;101055.16;5026837;28;20068;-67
2022/01/08 01:51:32;;;;;;;17.17;14.30;;;;;;;-0.21;93.13;101042.16;5030846;28;20025;-67
2022/01/08 01:53:57;;;;;;;17.90;13.35;;;;;;;-0.24;93.20;101037.84;5030756;28;20021;-67
2022/01/08 01:56:23;;;;;;;23.80;14.48;;;;;;;-0.25;93.18;101041.38;5024862;28;20281;-67
2022/01/08 01:58:50;;;;;;;20.20;13.63;;;;;;;-0.28;93.20;101033.63;5022861;28;20430;-67
2022/01/08 02:01:15;;;;;;;22.02;14.32;;;;;;;-0.29;93.07;101042.34;5030609;28;20025;-66
2022/01/08 02:03:41;;;;;;;24.65;14.85;;;;;;;-0.30;92.83;101035.44;5030752;28;20466;-65
2022/01/08 02:06:07;;;;;;;21.38;14.23;;;;;;;-0.32;92.87;101036.38;5029436;28;20022;-66
2022/01/08 02:08:33;;;;;;;26.30;14.00;;;;;;;-0.34;93.23;101036.41;5030467;28;20490;-66
2022/01/08 02:10:58;;;;;;;21.88;15.27;;;;;;;-0.36;93.20;101039.97;5027628;28;20276;-66
2022/01/08 02:13:26;;;;;;;23.35;14.30;;;;;;;-0.40;93.31;101042.66;5030675;28;20036;-66
2022/01/08 02:15:53;;;;;;;21.73;15.60;;;;;;;-0.42;93.48;101043.59;5029649;28;20034;-66
2022/01/08 02:18:20;;;;;;;22.77;14.90;;;;;;;-0.44;93.16;101042.78;5030615;28;20399;-66
2022/01/08 02:20:45;;;;;;;22.35;14.25;;;;;;;-0.45;93.44;101039.34;5026307;28;20048;-67
2022/01/08 02:23:10;;;;;;;23.35;15.30;;;;;;;-0.46;93.73;101042.81;5030199;28;20026;-66
2022/01/08 02:25:36;;;;;;;26.50;15.65;;;;;;;-0.49;93.82;101042.06;5025830;28;20197;-66
2022/01/08 02:28:05;;;;;;;22.60;15.40;;;;;;;-0.49;94.23;101053.34;5028852;28;20021;-66
2022/01/08 02:30:30;;;;;;;21.75;14.88;;;;;;;-0.51;94.22;101052.53;5027619;28;20065;-67
2022/01/08 02:32:55;;;;;;;24.52;15.30;;;;;;;-0.50;94.40;101062.09;5022778;28;20500;-67
2022/01/08 02:35:22;;;;;;;28.27;16.77;;;;;;;-0.51;94.88;101057.75;5022960;28;20033;-67
2022/01/08 02:37:50;;;;;;;24.30;15.65;;;;;;;-0.53;94.32;101056.94;5027100;28;20407;-67
2022/01/08 02:40:18;;;;;;;22.40;15.83;;;;;;;-0.51;94.64;101054.31;5028489;28;20033;-67
2022/01/08 02:42:51;;;;;;;28.33;15.68;;;;;;;-0.51;94.61;101062.13;5024763;28;20030;-65
2022/01/08 02:45:17;;;;;;;25.13;16.38;;;;;;;-0.50;94.74;101062.09;5030155;28;20036;-65
2022/01/08 02:47:43;;;;;;;24.33;16.02;;;;;;;-0.49;95.08;101066.41;5030101;28;20025;-65
2022/01/08 02:50:09;;;;;;;27.58;16.48;;;;;;;-0.49;95.05;101066.41;5027527;28;20041;-65
2022/01/08 02:52:34;;;;;;;25.63;16.40;;;;;;;-0.47;95.19;101066.34;5030023;28;20044;-65
2022/01/08 02:54:59;;;;;;;27.25;16.58;;;;;;;-0.47;95.14;101058.53;5029023;28;20025;-65
2022/01/08 02:57:24;;;;;;;24.30;16.33;;;;;;;-0.45;95.45;101064.56;5029995;28;20057;-65
2022/01/08 02:59:50;;;;;;;23.77;15.52;;;;;;;-0.46;95.40;101058.50;5021382;28;20075;-66
2022/01/08 03:02:15;;;;;;;22.65;16.75;;;;;;;-0.42;95.44;101056.66;5030000;28;20029;-66
2022/01/08 03:04:41;;;;;;;29.75;16.05;;;;;;;-0.42;95.65;101060.13;5030197;28;20037;-66
2022/01/08 03:07:06;;;;;;;23.50;15.15;;;;;;;-0.43;95.30;101061.00;5019291;28;20026;-65
2022/01/08 03:09:35;;;;;;;24.05;15.15;;;;;;;-0.40;95.54;101065.28;5029989;28;20026;-65
2022/01/08 03:12:00;;;;;;;;;;;;;;;-0.37;94.92;101059.97;5028707;28;20475;-66
2022/01/08 03:14:26;;;;;;;23.17;14.83;;;;;;;-0.40;95.37;101058.31;5028892;28;20035;-66
2022/01/08 03:16:51;;;;;;;27.05;15.13;;;;;;;-0.42;95.21;101062.75;5029916;28;20276;-66
2022/01/08 03:19:16;;;;;;;24.23;15.25;;;;;;;-0.41;95.32;101058.38;5029884;28;20025;-66
2022/01/08 03:21:44;;;;;;;28.38;15.40;;;;;;;-0.41;95.22;101063.59;5022396;28;20152;-66
2022/01/08 03:24:15;;;;;;;26.10;14.98;;;;;;;-0.43;95.66;101065.38;5023487;28;20029;-66
2022/01/08 03:26:40;;;;;;;24.92;15.25;;;;;;;-0.44;95.40;101059.28;5027709;28;20056;-66
2022/01/08 03:29:05;;;;;;;25.45;14.85;;;;;;;-0.44;95.36;101061.91;5033620;28;20520;-67
2022/01/08 03:31:31;;;;;;;26.55;15.30;;;;;;;-0.44;95.33;101059.28;5029889;28;20079;-67
2022/01/08 03:33:56;;;;;;;25.83;14.73;;;;;;;-0.44;95.37;101058.44;5033452;28;20391;-67
2022/01/08 03:36:23;;;;;;;25.15;14.98;;;;;;;-0.45;95.33;101061.94;5031608;28;20030;-67
2022/01/08 03:38:49;;;;;;;23.65;14.70;;;;;;;-0.45;95.44;101068.03;5021337;28;20034;-67
2022/01/08 03:41:15;;;;;;;20.15;14.65;;;;;;;-0.45;95.09;101056.72;5026004;28;20038;-67
2022/01/08 03:43:40;;;;;;;24.80;14.63;;;;;;;-0.45;95.80;101059.34;5033201;28;20032;-67
2022/01/08 03:46:05;;;;;;;25.70;14.52;;;;;;;-0.45;95.59;101064.56;5033054;28;20021;-67
2022/01/08 03:48:44;;;;;;;24.83;14.38;;;;;;;-0.48;95.54;101057.69;5026389;28;20038;-67
2022/01/08 03:51:13;;;;;;;26.67;14.93;;;;;;;-0.46;95.72;101055.88;5032003;28;20056;-67
2022/01/08 03:53:38;;;;;;;;;;;;;;;-0.42;95.19;101054.91;5029137;28;20258;-66
2022/01/08 03:56:04;;;;;;;24.80;13.05;;;;;;;-0.47;95.42;101059.38;5033252;28;19950;-66
2022/01/08 03:58:30;;;;;;;21.98;13.48;;;;;;;-0.47;95.66;101061.97;5032822;28;20022;-67
2022/01/08 04:00:55;;;;;;;25.00;13.40;;;;;;;-0.47;95.41;101061.13;5031744;28;20364;-67
2022/01/08 04:03:21;;;;;;;21.38;13.68;;;;;;;-0.48;95.59;101064.63;5032854;28;20341;-66
2022/01/08 04:05:48;;;;;;;21.88;13.43;;;;;;;-0.49;95.54;101070.75;5032774;28;20132;-66
2022/01/08 04:08:14;;;;;;;24.85;13.40;;;;;;;-0.50;95.71;101085.56;5032963;28;20030;-67
2022/01/08 04:10:40;;;;;;;22.23;14.18;;;;;;;-0.51;95.64;101085.63;5027544;28;20030;-67
2022/01/08 04:13:13;;;;;;;26.25;13.93;;;;;;;-0.50;95.71;101079.47;5030306;28;20025;-67
2022/01/08 04:15:42;;;;;;;23.20;13.48;;;;;;;-0.50;96.02;101076.88;5024720;28;20025;-67
2022/01/08 04:18:08;;;;;;;22.02;14.05;;;;;;;-0.50;96.09;101071.66;5032690;28;20108;-67
2022/01/08 04:20:47;;;;;;;26.90;14.25;;;;;;;-0.52;95.95;101076.06;5030901;28;20029;-67
2022/01/08 04:23:14;;;;;;;21.52;12.88;;;;;;;-0.51;96.07;101085.63;5012942;28;20480;-66
2022/01/08 04:25:39;;;;;;;21.10;12.82;;;;;;;-0.53;96.00;101085.66;5012992;28;20038;-67
2022/01/08 04:28:05;;;;;;;25.92;13.65;;;;;;;-0.52;96.13;101082.13;5012669;28;20064;-67
2022/01/08 04:30:30;;;;;;;24.35;13.68;;;;;;;-0.52;96.15;101089.09;5013038;28;20026;-67
2022/01/08 04:32:55;;;;;;;26.75;13.95;;;;;;;-0.53;95.75;101101.31;5012846;28;20026;-67
2022/01/08 04:35:20;;;;;;;22.00;14.07;;;;;;;-0.53;95.89;101098.69;5012711;28;20038;-67
2022/01/08 04:37:46;;;;;;;21.67;13.43;;;;;;;-0.53;95.96;101105.66;5011126;28;20018;-68
2022/01/08 04:40:11;;;;;;;26.65;14.50;;;;;;;-0.52;96.32;101100.38;5012436;28;20550;-67
2022/01/08 04:42:37;;;;;;;21.98;13.57;;;;;;;-0.52;96.25;101107.38;5012453;28;20026;-67
2022/01/08 04:45:02;;;;;;;19.05;13.23;;;;;;;-0.51;96.13;101104.72;5012543;28;20029;-67
2022/01/08 04:47:27;;;;;;;21.35;12.95;;;;;;;-0.52;96.10;101096.94;5010974;28;20022;-67
2022/01/08 04:49:53;;;;;;;25.10;12.85;;;;;;;-0.50;96.56;101109.06;5016811;28;20045;-67
2022/01/08 04:52:18;;;;;;;18.63;13.13;;;;;;;-0.51;96.10;101109.94;5025954;28;20042;-67
2022/01/08 04:54:43;;;;;;;18.92;13.05;;;;;;;-0.52;96.29;101110.81;5028719;28;20037;-67
2022/01/08 04:57:08;;;;;;;24.65;12.65;;;;;;;-0.49;96.17;101109.91;5024809;28;20029;-67
2022/01/08 04:59:34;;;;;;;20.55;13.07;;;;;;;-0.52;96.18;101121.25;5031568;28;20029;-68
2022/01/08 05:01:59;;;;;;;21.30;12.35;;;;;;;-0.50;96.10;101110.78;5024210;28;20066;-68
2022/01/08 05:04:26;;;;;;;21.73;12.93;;;;;;;-0.50;96.37;101113.41;5026060;28;20030;-68
2022/01/08 05:06:51;;;;;;;22.42;12.43;;;;;;;-0.50;96.46;101126.44;5012393;28;20040;-67
2022/01/08 05:09:16;;;;;;;21.80;12.80;;;;;;;-0.50;96.12;101126.44;5011808;28;20384;-67
2022/01/08 05:11:42;;;;;;;20.90;11.98;;;;;;;-0.52;96.14;101126.47;5011929;28;20068;-67
2022/01/08 05:14:09;;;;;;;26.92;12.30;;;;;;;-0.53;96.27;101122.19;5011642;28;20392;-67
2022/01/08 05:16:34;;;;;;;22.23;12.82;;;;;;;-0.54;96.41;101128.28;5012304;28;20435;-68
2022/01/08 05:19:00;;;;;;;21.92;12.30;;;;;;;-0.54;96.06;101135.25;5011622;28;20075;-68
2022/01/08 05:21:29;;;;;;;23.77;11.88;;;;;;;-0.54;96.20;101132.66;5012107;28;20091;-68
2022/01/08 05:23:55;;;;;;;22.10;12.27;;;;;;;-0.54;96.26;101127.44;5010470;28;20472;-68
2022/01/08 05:26:23;;;;;;;19.45;11.32;;;;;;;-0.54;96.70;101124.81;5011458;28;20037;-68
2022/01/08 05:28:48;;;;;;;22.23;12.20;;;;;;;-0.53;96.92;101126.53;5011617;28;20030;-67
2022/01/08 05:31:22;;;;;;;23.40;12.40;;;;;;;-0.52;96.69;101126.47;5011506;28;20033;-68
2022/01/08 05:33:48;;;;;;;19.42;11.65;;;;;;;-0.51;97.00;101124.75;5011909;28;20551;-68
2022/01/08 05:36:14;;;;;;;20.92;11.75;;;;;;;-0.51;97.24;101120.38;5011554;28;20026;-68
2022/01/08 05:38:40;;;;;;;21.45;12.13;;;;;;;-0.48;97.14;101129.88;5011978;28;20091;-67
2022/01/08 05:41:05;;;;;;;24.40;11.70;;;;;;;-0.47;97.04;101122.00;5011242;28;20030;-67
2022/01/08 05:43:31;;;;;;;19.85;11.45;;;;;;;-0.45;97.26;101109.78;5011271;28;20030;-67
2022/01/08 05:45:56;;;;;;;18.95;11.23;;;;;;;-0.45;96.94;101112.41;5011434;28;20030;-67
2022/01/08 05:48:23;;;;;;;18.35;10.93;;;;;;;-0.43;97.25;101114.97;5011090;28;20091;-67
2022/01/08 05:50:49;;;;;;;21.27;10.73;;;;;;;-0.44;97.01;101126.28;5023855;28;20042;-67
2022/01/08 05:53:16;;;;;;;20.75;10.75;;;;;;;-0.45;97.03;101132.41;5031015;28;20017;-67
2022/01/08 05:55:41;;;;;;;18.65;11.27;;;;;;;-0.47;96.96;101132.44;5025150;28;20213;-67
2022/01/08 05:58:06;;;;;;;20.33;10.55;;;;;;;-0.46;96.96;101135.91;5027452;28;20171;-68
2022/01/08 06:00:32;;;;;;;15.05;9.85;;;;;;;-0.48;96.91;101140.31;5030770;28;20045;-67
2022/01/08 06:02:57;;;;;;;18.45;10.65;;;;;;;-0.47;97.00;101145.47;5030964;28;20528;-67
2022/01/08 06:05:22;;;;;;;19.15;10.00;;;;;;;-0.48;96.69;101145.50;5024455;28;20124;-67
2022/01/08 06:07:48;;;;;;;17.83;9.82;;;;;;;-0.48;96.42;101153.34;5030560;28;20087;-67
2022/01/08 06:10:13;;;;;;;17.58;10.57;;;;;;;-0.48;97.00;101150.75;5030358;28;20021;-67
2022/01/08 06:12:38;;;;;;;21.40;11.07;;;;;;;-0.49;97.01;101155.09;5030574;28;20105;-67
2022/01/08 06:15:04;;;;;;;18.63;10.57;;;;;;;-0.50;97.17;101147.31;5017977;28;20092;-66
2022/01/08 06:17:29;;;;;;;22.52;10.80;;;;;;;-0.49;96.87;101155.09;5030792;28;20033;-66
2022/01/08 06:19:54;;;;;;;23.27;11.40;;;;;;;-0.49;97.00;101157.72;5022183;28;20018;-67
2022/01/08 06:22:20;;;;;;;19.33;11.57;;;;;;;-0.46;97.34;101159.41;5028675;28;20071;-67
2022/01/08 06:24:45;;;;;;;22.77;11.68;;;;;;;-0.46;97.29;101162.88;5030323;28;20028;-67
2022/01/08 06:27:11;;;;;;;18.83;11.63;;;;;;;-0.45;97.20;101150.66;5028288;28;20360;-68
2022/01/08 06:29:36;;;;;;;17.67;11.25;;;;;;;-0.45;97.25;101151.53;5018722;28;20583;-68
2022/01/08 06:32:02;;;;;;;22.70;11.27;;;;;;;-0.43;97.43;101151.50;5030214;28;20040;-68
2022/01/08 06:34:27;;;;;;;23.92;11.30;;;;;;;-0.43;97.35;101147.13;5027721;28;20060;-68
2022/01/08 06:36:52;;;;;;;19.65;11.52;;;;;;;-0.42;97.58;101145.38;5022466;28;20029;-68
2022/01/08 06:39:18;;;;;;;18.35;11.73;;;;;;;-0.39;97.33;101140.06;5030050;28;20044;-68
2022/01/08 06:41:44;;;;;;;16.80;11.52;;;;;;;-0.40;97.59;101130.53;5025583;28;20063;-68
2022/01/08 06:44:10;;;;;;;21.58;12.00;;;;;;;-0.39;97.82;101137.47;5026213;28;20036;-68
2022/01/08 06:46:35;;;;;;;20.27;11.35;;;;;;;-0.38;97.66;101139.19;5025267;28;20029;-68
2022/01/08 06:49:01;;;;;;;18.05;11.95;;;;;;;-0.39;97.70;101138.31;5029980;28;20084;-68
2022/01/08 06:51:26;;;;;;;26.27;11.32;;;;;;;-0.41;97.46;101134.03;5015087;28;20394;-68
2022/01/08 06:53:52;;;;;;;21.27;12.00;;;;;;;-0.41;97.28;101126.22;5030456;28;20064;-67
2022/01/08 06:56:18;;;;;;;24.67;11.63;;;;;;;-0.40;97.44;101126.19;5030076;28;20026;-67
2022/01/08 06:58:43;;;;;;;21.42;12.10;;;;;;;-0.41;97.47;101124.44;5027902;28;20048;-67
2022/01/08 07:01:09;;;;;;;20.05;11.52;;;;;;;-0.40;97.65;101128.78;5030578;28;20491;-67
2022/01/08 07:03:34;;;;;;;21.98;12.18;;;;;;;-0.41;97.38;101134.03;5034208;28;20034;-67
2022/01/08 07:05:59;;;;;;;21.23;10.98;;;;;;;-0.43;97.43;101128.03;5033901;28;20072;-67
2022/01/08 07:08:24;;;;;;;21.90;11.52;;;;;;;-0.43;97.15;101128.88;5028390;28;20042;-67
2022/01/08 07:10:50;;;;;;;16.73;10.73;;;;;;;-0.44;96.87;101127.13;5033108;28;20071;-67
2022/01/08 07:13:15;;;;;;;23.40;11.18;;;;;;;-0.44;97.42;101127.13;5032082;28;20372;-66
2022/01/08 07:15:40;;;;;;;21.33;11.88;;;;;;;-0.43;97.17;101133.22;5034379;28;20025;-68
2022/01/08 07:18:06;;;;;;;21.30;11.35;;;;;;;-0.45;97.53;101128.06;5031318;28;20031;-67
2022/01/08 07:20:31;;;;;;;23.98;11.05;;;;;;;-0.46;97.22;101136.75;5027366;28;20037;-68
2022/01/08 07:22:56;;;;;;;20.08;11.50;;;;;;;-0.47;97.37;101126.38;5035026;28;20092;-67
2022/01/08 07:25:22;;;;;;;21.80;11.40;;;;;;;-0.49;97.18;101142.06;5034841;28;20037;-67
2022/01/08 07:27:47;;;;;;;22.88;10.95;;;;;;;-0.48;97.23;101135.06;5030945;28;20041;-67
2022/01/08 07:30:12;;;;;;;19.52;10.73;;;;;;;-0.48;97.15;101135.06;5027321;28;20421;-67
2022/01/08 07:32:45;;;;;;;18.45;10.45;;;;;;;-0.48;97.26;101132.47;5015962;28;20515;-67
2022/01/08 07:35:14;;;;;;;19.77;11.48;;;;;;;-0.47;97.73;101134.19;5017868;28;20041;-67
2022/01/08 07:37:40;;;;;;;25.20;12.80;;;;;;;-0.47;97.73;101132.44;5020771;28;20087;-67
2022/01/08 07:40:06;;;;;;;22.75;12.07;;;;;;;-0.47;97.87;101132.44;5019283;28;20455;-67
2022/01/08 07:42:31;;;;;;;21.35;13.25;;;;;;;-0.45;97.82;101129.78;5019607;28;20053;-66
2022/01/08 07:44:57;;;;;;;23.42;12.48;;;;;;;-0.43;98.17;101138.47;5029336;28;20471;-67
2022/01/08 07:47:22;;;;;;;20.55;11.88;;;;;;;-0.42;97.96;101135.81;5016221;28;20044;-67
2022/01/08 07:49:47;;;;;;;23.40;11.82;;;;;;;-0.43;97.93;101123.66;5027875;28;20034;-66
2022/01/08 07:52:13;;;;;;;22.88;11.77;;;;;;;-0.39;97.86;101133.09;5020613;28;20111;-67
2022/01/08 07:54:38;;;;;;;24.65;12.68;;;;;;;-0.36;98.26;101119.13;5016204;28;20096;-68
2022/01/08 07:57:03;;;;;;;24.02;13.68;;;;;;;-0.33;98.58;101126.88;5013690;28;20052;-67
2022/01/08 07:59:29;;;;;;;21.70;12.40;;;;;;;-0.30;98.46;101118.09;5026289;28;20040;-67
2022/01/08 08:01:54;;;;;;;21.23;12.88;;;;;;;-0.29;98.73;101115.44;5032406;28;20487;-67
2022/01/08 08:04:19;;;;;;;26.10;12.43;;;;;;;-0.26;98.62;101112.75;5024245;28;20547;-67
2022/01/08 08:06:47;;;;;;;22.40;12.60;;;;;;;-0.24;98.62;101110.09;5018176;28;20041;-67
2022/01/08 08:09:13;;;;;;;23.85;13.55;;;;;;;-0.22;98.74;101114.38;5015715;28;20064;-68
2022/01/08 08:11:38;;;;;;;24.85;12.50;;;;;;;-0.18;98.68;101112.53;5016024;28;20091;-68
2022/01/08 08:14:04;;;;;;;26.33;12.60;;;;;;;-0.16;98.38;101099.47;5014675;28;20495;-67
2022/01/08 08:16:29;;;;;;;25.60;13.43;;;;;;;-0.14;98.79;101101.09;5015895;28;20037;-66
2022/01/08 08:18:54;;;;;;;22.10;12.88;;;;;;;-0.12;98.60;101096.69;5013938;28;20144;-67
2022/01/08 08:21:20;;;;;;;27.52;13.93;;;;;;;-0.11;98.80;101095.81;5013039;28;20494;-67
2022/01/08 08:23:45;;;;;;;24.77;14.30;;;;;;;-0.07;98.83;101093.97;5012754;28;20034;-67
2022/01/08 08:26:10;;;;;;;28.85;13.77;;;;;;;-0.05;98.52;101092.16;5014146;28;20022;-67
2022/01/08 08:28:36;;;;;;;23.10;14.05;;;;;;;-0.04;98.56;101088.66;5014982;28;20037;-66
2022/01/08 08:31:01;;;;;;;29.42;14.93;;;;;;;-0.01;98.95;101085.97;5014323;28;20075;-66
2022/01/08 08:33:26;;;;;;;26.00;14.48;;;;;;;0.02;98.49;101079.78;5014743;28;20125;-66
2022/01/08 08:35:51;;;;;;;26.13;15.35;;;;;;;0.03;98.51;101077.13;5022717;28;20024;-67
2022/01/08 08:38:17;;;;;;;30.05;16.67;;;;;;;0.05;98.65;101080.56;5029324;28;20041;-66
2022/01/08 08:40:42;;;;;;;29.55;16.33;;;;;;;0.08;98.62;101083.06;5027076;28;20024;-66
2022/01/08 08:43:07;;;;;;;23.35;15.68;;;;;;;0.09;98.23;101079.56;5017770;28;20380;-65
2022/01/08 08:45:32;;;;;;;31.23;17.23;;;;;;;0.10;98.30;101078.66;5031617;28;20036;-65
2022/01/08 08:47:58;;;;;;;29.98;17.00;;;;;;;0.15;98.55;101086.34;5021885;28;20839;-66
2022/01/08 08:50:24;;;;;;;26.92;17.13;;;;;;;0.16;98.89;101075.84;5014044;28;20041;-66
2022/01/08 08:52:50;;;;;;;29.63;18.10;;;;;;;0.18;98.75;101079.31;5026525;28;20036;-65
2022/01/08 08:55:17;;;;;;;39.45;19.20;;;;;;;0.22;99.00;101073.97;5028180;28;20037;-66
2022/01/08 08:57:44;;;;;;;31.73;18.63;;;;;;;0.25;98.49;101060.81;5030609;28;20104;-66
2022/01/08 09:00:09;;;;;;;33.58;19.05;;;;;;;0.27;98.98;101072.09;5024249;28;20045;-66
2022/01/08 09:02:35;;;;;;;31.75;18.95;;;;;;;0.30;98.90;101074.59;5031361;28;20026;-66
2022/01/08 09:05:01;;;;;;;28.02;18.25;;;;;;;0.33;98.48;101077.13;5027820;28;20025;-65
2022/01/08 09:07:26;;;;;;;33.80;20.08;;;;;;;0.34;98.36;101079.69;5030864;28;20025;-64
2022/01/08 09:09:52;;;;;;;30.95;18.25;;;;;;;0.36;98.80;101079.63;5029469;28;20040;-64
2022/01/08 09:12:17;;;;;;;33.67;20.02;;;;;;;0.38;98.56;101077.81;5027850;28;20141;-64
2022/01/08 09:14:43;;;;;;;32.65;19.38;;;;;;;0.40;98.50;101083.88;5021352;28;20491;-64
2022/01/08 09:17:10;;;;;;;32.72;19.20;;;;;;;0.42;98.60;101079.47;5016823;28;20029;-64
2022/01/08 09:19:36;;;;;;;37.00;19.67;;;;;;;0.45;98.45;101073.28;5013821;28;20026;-64
2022/01/08 09:22:02;;;;;;;33.00;20.25;;;;;;;0.46;98.28;101065.38;5019715;28;20076;-64
2022/01/08 09:24:28;;;;;;;32.38;19.98;;;;;;;0.47;98.52;101061.88;5014762;28;20484;-64
2022/01/08 09:26:53;;;;;;;35.70;19.52;;;;;;;0.50;98.58;101051.34;5015074;28;20121;-65
2022/01/08 09:29:19;;;;;;;33.00;19.38;;;;;;;0.51;98.25;101047.81;5017110;28;20014;-64
2022/01/08 09:31:44;;;;;;;31.50;18.85;;;;;;;0.53;98.55;101045.13;5024525;28;20352;-64
2022/01/08 09:34:10;;;;;;;33.80;19.90;;;;;;;0.57;98.13;101044.16;5030164;28;20399;-66
2022/01/08 09:36:37;;;;;;;34.83;18.77;;;;;;;0.61;98.42;101029.22;5029993;28;20333;-64
2022/01/08 09:39:04;;;;;;;33.47;18.77;;;;;;;0.62;98.43;101033.56;5030160;28;20441;-64
2022/01/08 09:41:30;;;;;;;36.38;18.63;;;;;;;0.63;98.00;101028.25;5030439;28;20033;-64
2022/01/08 09:43:55;;;;;;;33.72;19.05;;;;;;;0.65;98.40;101025.59;5029554;28;20076;-64
2022/01/08 09:46:21;;;;;;;32.90;19.48;;;;;;;0.68;97.91;101023.75;5030538;28;20017;-64
2022/01/08 09:48:47;;;;;;;32.30;19.17;;;;;;;0.70;98.37;101018.44;5030966;28;20099;-64
2022/01/08 09:51:12;;;;;;;31.80;19.17;;;;;;;0.74;97.57;101014.84;5030544;28;21135;-64
2022/01/08 09:53:38;;;;;;;35.00;19.88;;;;;;;0.76;97.99;101013.03;5026668;28;20030;-64
2022/01/08 09:56:04;;;;;;;33.17;19.88;;;;;;;0.80;97.91;101012.03;5029054;28;20207;-64
2022/01/08 09:58:29;;;;;;;34.15;19.38;;;;;;;0.82;98.27;100996.31;5030852;28;20513;-64
2022/01/08 10:00:55;;;;;;;35.92;18.95;;;;;;;0.85;98.07;100997.06;5029949;28;20105;-64
2022/01/08 10:03:26;;;;;;;32.88;18.90;;;;;;;0.89;97.78;100988.19;5030709;28;20049;-64
2022/01/08 10:05:58;;;;;;;33.30;18.70;;;;;;;0.91;97.57;100982.91;5030537;28;20325;-64
2022/01/08 10:08:26;;;;;;;36.47;20.42;;;;;;;0.96;97.35;100970.53;5028783;28;20120;-64
2022/01/08 10:10:59;;;;;;;36.20;20.83;;;;;;;0.99;97.62;100967.81;5028839;28;20104;-66
2022/01/08 10:13:29;;;;;;;33.08;19.73;;;;;;;1.03;97.71;100950.25;5024882;28;20049;-65
2022/01/08 10:18:40;;;;;;;34.55;19.48;;;;;;;1.10;97.08;100939.50;5030422;28;20045;-65
2022/01/08 10:21:27;;;;;;;31.77;20.13;;;;;;;1.14;97.06;100931.56;5030458;28;20048;-65
2022/01/08 10:23:55;;;;;;;35.15;20.33;;;;;;;1.18;97.14;100923.53;5026854;28;20029;-65
2022/01/08 10:26:23;;;;;;;34.15;20.08;;;;;;;1.21;97.26;100915.56;5019600;28;20068;-65
2022/01/08 10:28:53;;;;;;;36.83;19.23;;;;;;;1.24;96.55;100910.22;5027577;28;20025;-66
2022/01/08 10:31:27;;;;;;;31.45;17.20;;;;;;;1.27;96.38;100910.13;5028370;28;20029;-65
2022/01/08 10:34:04;;;;;;;29.40;17.73;;;;;;;1.33;96.53;100910.78;5028411;28;20371;-64
2022/01/08 10:36:36;;;;;;;32.22;17.58;;;;;;;1.36;96.20;100908.06;5028984;28;20041;-64
2022/01/08 10:39:17;;;;;;;35.30;17.10;;;;;;;1.40;96.27;100909.66;5030143;28;20044;-64
2022/01/08 10:41:44;;;;;;;34.50;18.35;;;;;;;1.44;96.21;100898.19;5030187;28;20499;-64
2022/01/08 10:44:14;;;;;;;33.95;17.95;;;;;;;1.47;95.46;100879.75;5016796;28;20152;-64
2022/01/08 10:46:46;;;;;;;32.97;17.27;;;;;;;1.49;95.52;100870.06;5031651;28;20546;-64
2022/01/08 10:49:15;;;;;;;29.92;18.13;;;;;;;1.51;95.88;100870.84;5025144;28;20145;-65
2022/01/08 10:51:40;;;;;;;30.00;17.60;;;;;;;1.55;95.58;100854.13;5029859;28;20044;-63
2022/01/08 10:54:09;;;;;;;27.40;15.95;;;;;;;1.55;95.85;100855.88;5030612;28;20029;-64
2022/01/08 10:56:46;;;;;;;29.60;16.83;;;;;;;1.60;95.69;100838.22;5018036;28;20025;-66
2022/01/08 10:59:20;;;;;;;25.38;16.20;;;;;;;1.62;95.43;100849.50;5031202;28;20036;-64
2022/01/08 11:01:57;;;;;;;25.42;15.57;;;;;;;1.66;95.10;100838.81;5031377;28;20104;-64
2022/01/08 11:04:33;;;;;;;24.95;15.07;;;;;;;1.65;94.65;100829.28;5032034;28;20379;-63
2022/01/08 11:07:02;;;;;;;29.15;16.80;;;;;;;1.67;95.32;100830.06;5017717;28;20034;-64
2022/01/08 11:09:28;;;;;;;25.88;14.88;;;;;;;1.73;94.82;100828.13;5031713;28;20029;-64
2022/01/08 11:11:56;;;;;;;26.98;15.25;;;;;;;1.74;95.01;100814.13;5028671;28;20026;-63
2022/01/08 11:17:17;;;;;;;23.95;13.45;;;;;;;1.83;94.66;100790.16;5032021;28;20052;-64
2022/01/08 11:19:55;;;;;;;24.77;13.48;;;;;;;1.84;94.42;100777.00;5028290;28;20018;-64
2022/01/08 11:22:23;;;;;;;18.98;12.32;;;;;;;1.88;94.62;100776.88;5026456;28;20065;-64
2022/01/08 11:24:52;;;;;;;22.15;11.95;;;;;;;1.91;94.00;100767.13;5028078;28;20021;-64
2022/01/08 11:27:21;;;;;;;19.58;11.98;;;;;;;1.95;93.70;100759.97;5029777;28;20040;-64
2022/01/08 11:29:57;;;;;;;23.73;11.15;;;;;;;2.00;93.84;100755.44;5017357;28;20030;-65
2022/01/08 11:32:25;;;;;;;27.02;13.73;;;;;;;2.02;93.96;100745.72;5020931;28;20029;-64
2022/01/08 11:34:52;;;;;;;24.27;11.38;;;;;;;2.05;93.21;100750.84;5012425;28;20503;-65